Strona główna
METAR-TAF:

METAR-TAF

Lotnisko :

Indianapolis, Indiana, Stany Zjednoczone

Szerokość geograficzna: 39-49-30N, Długość geograficzna: 086-17-45W, wysokość: 250 m

Aktualna obserwacja pogody

Raport powstał 56 minut temu, godzina 12:53 UTC
Wiatr 7 kt od wschód
Temperatura 17°C
Wilgotność 72%
Ciśnienie 1024 hPa
bezchmurnie

METAR: KEYE 241253Z AUTO 08007KT CLR 17/12 A3024 RMK AO2 SLP237 T01720122

czas: 09:49 (13:49 UTC)


TAF: brakujący

Obserwacja i prognoza pogody dla ponad 4000 lotnisk (raport METAR i TAF).

Dostępne stacje oznaczono żółtymi i czerwonymi punktami na mapie.

Najedź kursorem aby zobaczyć nazwę stacji.

Kliknij aby zobaczyć obserwacje i prognozy pogody.

Aby zmienić mapę: kliknij na zielony przycisk z czarnym krzyżykiem, aby powiększyć; na zielony przycisk z myślnikiem, aby pomniejszyć; na zielone strzałki, aby przejść do map sąsiednich.


METAR-TAF: